createdAt,value
2022-12-19T00:00:05.447Z,30.90
2022-12-19T00:02:39.596Z,30.58
2022-12-19T00:05:07.330Z,30.25
2022-12-19T00:07:34.480Z,29.88
2022-12-19T00:10:01.539Z,31.67
2022-12-19T00:12:28.655Z,29.35
2022-12-19T00:14:55.739Z,29.88
2022-12-19T00:17:25.518Z,29.38
2022-12-19T00:19:52.516Z,28.30
2022-12-19T00:22:19.660Z,32.15
2022-12-19T00:24:48.031Z,32.42
2022-12-19T00:27:15.185Z,31.85
2022-12-19T00:29:42.226Z,31.90
2022-12-19T00:32:09.522Z,31.45
2022-12-19T00:34:42.127Z,32.33
2022-12-19T00:37:09.305Z,32.55
2022-12-19T00:39:36.477Z,32.78
2022-12-19T00:42:03.605Z,31.17
2022-12-19T00:44:30.799Z,31.80
2022-12-19T00:46:59.147Z,31.58
2022-12-19T00:49:26.381Z,32.10
2022-12-19T00:51:53.613Z,28.60
2022-12-19T00:54:20.873Z,29.98
2022-12-19T00:56:48.025Z,30.40
2022-12-19T00:59:15.316Z,30.88
2022-12-19T01:01:45.519Z,28.90
2022-12-19T01:04:32.666Z,30.27
2022-12-19T01:07:03.248Z,29.35
2022-12-19T01:09:33.438Z,30.83
2022-12-19T01:12:21.011Z,30.05
2022-12-19T01:14:54.702Z,29.75
2022-12-19T01:17:26.118Z,30.45
2022-12-19T01:19:53.501Z,30.20
2022-12-19T01:22:21.092Z,30.80
2022-12-19T01:24:48.150Z,31.08
2022-12-19T01:27:15.817Z,31.50
2022-12-19T01:29:52.008Z,30.88
2022-12-19T01:32:20.871Z,30.63
2022-12-19T01:34:47.995Z,30.42
2022-12-19T01:37:18.758Z,30.45
2022-12-19T01:39:46.570Z,32.38
2022-12-19T01:42:23.394Z,32.75
2022-12-19T01:45:13.858Z,31.67
2022-12-19T01:47:55.345Z,31.23
2022-12-19T01:50:29.589Z,31.48
2022-12-19T01:52:58.319Z,25.42
2022-12-19T01:55:26.304Z,31.70
2022-12-19T01:57:56.446Z,32.85
2022-12-19T02:00:23.619Z,32.58
2022-12-19T02:03:05.402Z,33.03
2022-12-19T02:05:34.765Z,32.03
2022-12-19T02:08:02.988Z,34.35
2022-12-19T02:10:30.257Z,32.17
2022-12-19T02:12:57.630Z,31.75
2022-12-19T02:15:29.296Z,31.27
2022-12-19T02:18:03.728Z,31.52
2022-12-19T02:20:38.496Z,31.25
2022-12-19T02:23:32.982Z,35.35
2022-12-19T02:26:20.062Z,35.83
2022-12-19T02:28:54.925Z,35.72
2022-12-19T02:31:34.659Z,37.63
2022-12-19T02:34:25.791Z,36.72
2022-12-19T02:37:05.104Z,38.35
2022-12-19T02:39:39.629Z,39.28
2022-12-19T02:42:10.143Z,38.78
2022-12-19T02:44:45.690Z,39.58
2022-12-19T02:47:14.174Z,39.58
2022-12-19T02:49:42.650Z,38.90
2022-12-19T02:52:13.342Z,37.45
2022-12-19T02:54:43.561Z,37.90
2022-12-19T02:57:24.354Z,39.75
2022-12-19T03:00:03.794Z,42.15
2022-12-19T03:02:44.014Z,40.63
2022-12-19T03:05:26.565Z,41.13
2022-12-19T03:07:56.017Z,41.08
2022-12-19T03:10:37.117Z,42.80
2022-12-19T03:13:27.455Z,40.05
2022-12-19T03:15:54.771Z,42.75
2022-12-19T03:18:22.208Z,42.88
2022-12-19T03:21:12.528Z,42.10
2022-12-19T03:23:40.805Z,41.63
2022-12-19T03:26:12.518Z,43.00
2022-12-19T03:28:45.817Z,47.50
2022-12-19T03:31:15.144Z,46.45
2022-12-19T03:33:43.252Z,45.28
2022-12-19T03:36:16.116Z,41.92
2022-12-19T03:38:45.713Z,41.15
2022-12-19T03:41:16.373Z,42.58
2022-12-19T03:43:45.907Z,42.30
2022-12-19T03:46:20.202Z,42.38
2022-12-19T03:48:54.324Z,39.50
2022-12-19T03:51:48.684Z,30.50
2022-12-19T03:54:22.140Z,31.67
2022-12-19T03:56:51.120Z,40.05
2022-12-19T03:59:31.580Z,40.00
2022-12-19T04:01:59.419Z,41.50
2022-12-19T04:04:28.741Z,39.78
2022-12-19T04:06:56.765Z,42.90
2022-12-19T04:09:24.772Z,43.72
2022-12-19T04:11:55.279Z,43.72
2022-12-19T04:14:30.063Z,43.00
2022-12-19T04:17:10.439Z,45.25
2022-12-19T04:19:45.023Z,41.13
2022-12-19T04:22:22.628Z,42.60
2022-12-19T04:24:51.979Z,46.47
2022-12-19T04:27:20.911Z,44.10
2022-12-19T04:29:51.760Z,44.88
2022-12-19T04:32:19.918Z,43.00
2022-12-19T04:34:47.025Z,43.35
2022-12-19T04:37:14.171Z,41.58
2022-12-19T04:39:41.443Z,41.30
2022-12-19T04:42:08.528Z,44.45
2022-12-19T04:44:35.645Z,44.33
2022-12-19T04:47:02.869Z,45.35
2022-12-19T04:49:30.085Z,45.65
2022-12-19T04:51:57.388Z,47.75
2022-12-19T04:54:24.378Z,46.03
2022-12-19T04:56:53.192Z,49.25
2022-12-19T04:59:20.379Z,50.33
2022-12-19T05:01:47.733Z,52.70
2022-12-19T05:04:14.797Z,55.03
2022-12-19T05:06:42.073Z,53.30
2022-12-19T05:09:11.757Z,53.63
2022-12-19T05:11:38.854Z,54.17
2022-12-19T05:14:06.124Z,55.05
2022-12-19T05:16:33.755Z,56.47
2022-12-19T05:19:01.684Z,59.47
2022-12-19T05:21:28.965Z,57.67
2022-12-19T05:23:56.609Z,58.70
2022-12-19T05:26:23.713Z,53.30
2022-12-19T05:28:50.822Z,53.25
2022-12-19T05:31:20.509Z,55.03
2022-12-19T05:33:49.064Z,48.67
2022-12-19T05:36:18.195Z,51.97
2022-12-19T05:38:45.339Z,49.00
2022-12-19T05:41:15.243Z,48.17
2022-12-19T05:43:44.178Z,49.05
2022-12-19T05:46:12.114Z,48.25
2022-12-19T05:48:39.377Z,49.95
2022-12-19T05:51:06.733Z,48.25
2022-12-19T05:53:36.838Z,49.00
2022-12-19T05:56:08.646Z,48.45
2022-12-19T05:58:37.158Z,48.05
2022-12-19T06:01:07.454Z,47.50
2022-12-19T06:03:35.394Z,46.45
2022-12-19T06:06:05.042Z,46.97
2022-12-19T06:08:32.558Z,46.90
2022-12-19T06:11:00.917Z,45.97
2022-12-19T06:13:29.135Z,45.67
2022-12-19T06:16:01.394Z,47.58
2022-12-19T06:18:29.188Z,48.45
2022-12-19T06:21:06.397Z,44.40
2022-12-19T06:23:35.985Z,45.90
2022-12-19T06:26:06.102Z,47.50
2022-12-19T06:28:34.698Z,44.00
2022-12-19T06:31:04.780Z,45.15
2022-12-19T06:33:32.779Z,45.83
2022-12-19T06:36:06.710Z,46.70
2022-12-19T06:38:35.295Z,40.80
2022-12-19T06:41:23.856Z,46.17
2022-12-19T06:43:53.543Z,46.20
2022-12-19T06:46:21.177Z,46.92
2022-12-19T06:48:48.469Z,43.88
2022-12-19T06:51:15.774Z,46.47
2022-12-19T06:53:42.884Z,45.72
2022-12-19T06:56:11.967Z,46.95
2022-12-19T06:58:39.341Z,44.95
2022-12-19T07:01:06.858Z,46.85
2022-12-19T07:03:40.685Z,48.63
2022-12-19T07:06:08.247Z,36.17
2022-12-19T07:08:35.729Z,46.95
2022-12-19T07:11:03.114Z,46.90
2022-12-19T07:13:30.630Z,46.50
2022-12-19T07:16:01.426Z,47.70
2022-12-19T07:18:34.324Z,47.15
2022-12-19T07:21:02.303Z,43.70
2022-12-19T07:23:30.129Z,44.95
2022-12-19T07:25:58.264Z,45.22
2022-12-19T07:28:25.537Z,43.97
2022-12-19T07:30:52.887Z,44.65
2022-12-19T07:33:21.963Z,44.40
2022-12-19T07:35:49.443Z,43.58
2022-12-19T07:38:16.737Z,42.83
2022-12-19T07:40:44.097Z,44.40
2022-12-19T07:43:11.117Z,43.05
2022-12-19T07:45:39.498Z,40.80
2022-12-19T07:48:07.921Z,44.40
2022-12-19T07:50:34.985Z,41.50
2022-12-19T07:53:02.327Z,43.03
2022-12-19T07:55:29.889Z,42.20
2022-12-19T07:57:56.990Z,42.50
2022-12-19T08:00:24.565Z,43.83
2022-12-19T08:02:51.927Z,41.88
2022-12-19T08:05:19.385Z,42.00
2022-12-19T08:07:46.516Z,42.30
2022-12-19T08:10:15.111Z,45.10
2022-12-19T08:12:42.498Z,44.40
2022-12-19T08:15:11.252Z,43.45
2022-12-19T08:17:39.780Z,41.60
2022-12-19T08:20:09.115Z,40.78
2022-12-19T08:22:36.185Z,40.55
2022-12-19T08:25:03.543Z,41.45
2022-12-19T08:27:30.722Z,41.08
2022-12-19T08:29:57.958Z,41.03
2022-12-19T08:32:25.078Z,39.40
2022-12-19T08:34:52.592Z,40.17
2022-12-19T08:37:19.901Z,39.38
2022-12-19T08:39:46.984Z,39.72
2022-12-19T08:42:14.452Z,40.15
2022-12-19T08:44:41.682Z,45.45
2022-12-19T08:47:09.749Z,41.00
2022-12-19T08:49:36.897Z,40.45
2022-12-19T08:52:04.367Z,39.17
2022-12-19T08:54:31.761Z,47.60
2022-12-19T08:56:59.342Z,36.58
2022-12-19T08:59:30.965Z,34.83
2022-12-19T09:02:01.297Z,35.17
2022-12-19T09:05:48.200Z,33.40
2022-12-19T09:07:17.278Z,35.88
2022-12-19T09:09:45.081Z,34.42
2022-12-19T09:12:14.453Z,33.92
2022-12-19T09:14:41.723Z,35.28
2022-12-19T09:17:09.603Z,35.78
2022-12-19T09:19:36.915Z,34.45
2022-12-19T09:22:05.083Z,33.50
2022-12-19T09:24:32.480Z,34.08
2022-12-19T09:26:59.931Z,34.13
2022-12-19T09:29:32.194Z,32.83
2022-12-19T09:32:02.441Z,33.00
2022-12-19T09:34:37.871Z,32.50
2022-12-19T09:37:08.474Z,30.83
2022-12-19T09:39:36.658Z,32.55
2022-12-19T09:42:13.687Z,31.25
2022-12-19T09:45:00.889Z,30.58
2022-12-19T09:47:31.401Z,29.42
2022-12-19T09:50:00.463Z,28.95
2022-12-19T09:52:27.808Z,30.88
2022-12-19T09:55:19.687Z,28.38
2022-12-19T09:57:59.343Z,30.05
2022-12-19T10:00:35.227Z,29.95
2022-12-19T10:03:05.697Z,29.92
2022-12-19T10:06:52.533Z,29.02
2022-12-19T10:09:15.797Z,29.20
2022-12-19T10:12:38.646Z,25.83
2022-12-19T10:17:32.488Z,27.55
2022-12-19T10:23:26.593Z,27.30
2022-12-19T10:26:03.374Z,29.10
2022-12-19T10:28:51.647Z,30.60
2022-12-19T10:31:24.634Z,28.25
2022-12-19T10:33:58.520Z,29.25
2022-12-19T10:36:55.995Z,28.40
2022-12-19T10:39:38.352Z,28.75
2022-12-19T10:42:15.983Z,28.42
2022-12-19T10:44:45.158Z,28.83
2022-12-19T10:47:16.600Z,29.17
2022-12-19T10:49:43.776Z,28.40
2022-12-19T10:52:12.535Z,28.85
2022-12-19T10:54:41.927Z,29.77
2022-12-19T10:57:27.055Z,28.17
2022-12-19T11:00:06.064Z,27.90
2022-12-19T11:02:39.867Z,29.10
2022-12-19T11:05:24.328Z,29.90
2022-12-19T11:08:07.095Z,29.58
2022-12-19T11:12:26.351Z,29.58
2022-12-19T11:19:24.133Z,29.15
2022-12-19T11:20:55.455Z,29.35
2022-12-19T11:29:26.119Z,21.20
2022-12-19T11:29:42.225Z,31.80
2022-12-19T11:29:45.690Z,29.17
2022-12-19T11:30:48.371Z,31.23
2022-12-19T11:33:28.899Z,28.65
2022-12-19T11:35:59.125Z,32.78
2022-12-19T11:38:48.737Z,29.58
2022-12-19T11:41:22.454Z,29.05
2022-12-19T11:43:50.026Z,21.97
2022-12-19T11:46:45.223Z,26.80
2022-12-19T11:52:00.988Z,25.20
2022-12-19T11:54:32.304Z,27.92
2022-12-19T11:57:00.204Z,28.23
2022-12-19T11:59:34.935Z,27.30
2022-12-19T12:02:37.743Z,27.35
2022-12-19T12:05:25.924Z,26.67
2022-12-19T12:10:17.845Z,26.23
2022-12-19T12:15:25.478Z,25.50
2022-12-19T12:23:05.514Z,24.48
2022-12-19T12:31:09.000Z,26.45
2022-12-19T12:31:29.754Z,27.85
2022-12-19T12:31:39.617Z,27.05
2022-12-19T12:31:42.784Z,28.55
2022-12-19T12:31:53.470Z,27.23
2022-12-19T12:35:51.345Z,27.75
2022-12-19T12:39:14.549Z,27.13
2022-12-19T12:42:25.815Z,27.08
2022-12-19T12:44:57.277Z,26.30
2022-12-19T12:47:27.134Z,27.85
2022-12-19T12:50:03.047Z,26.25
2022-12-19T12:52:44.830Z,25.98
2022-12-19T12:55:34.249Z,26.60
2022-12-19T12:58:01.444Z,26.80
2022-12-19T13:00:31.563Z,27.27
2022-12-19T13:03:18.986Z,27.00
2022-12-19T13:05:46.401Z,26.52
2022-12-19T13:08:34.694Z,27.67
2022-12-19T13:11:06.565Z,27.05
2022-12-19T13:13:55.037Z,27.00
2022-12-19T13:16:48.725Z,26.35
2022-12-19T13:19:34.427Z,26.77
2022-12-19T13:22:05.284Z,26.42
2022-12-19T13:24:53.265Z,27.63
2022-12-19T13:27:20.425Z,27.35
2022-12-19T13:30:01.618Z,26.95
2022-12-19T13:32:44.911Z,27.27
2022-12-19T13:36:49.340Z,26.27
2022-12-19T13:39:56.638Z,28.27
2022-12-19T13:41:47.855Z,25.10
2022-12-19T13:44:19.846Z,25.98
2022-12-19T13:46:47.574Z,27.42
2022-12-19T13:49:23.542Z,26.88
2022-12-19T13:51:57.142Z,25.75
2022-12-19T13:54:32.264Z,26.00
2022-12-19T13:57:03.045Z,25.98
2022-12-19T13:59:40.059Z,27.15
2022-12-19T14:02:18.160Z,28.48
2022-12-19T14:04:46.099Z,26.75
2022-12-19T14:07:43.238Z,27.23
2022-12-19T14:11:33.190Z,26.30
2022-12-19T14:13:52.869Z,27.60
2022-12-19T14:16:44.004Z,27.15
2022-12-19T14:19:19.940Z,28.77
2022-12-19T14:22:09.947Z,27.95
2022-12-19T14:24:34.651Z,29.60
2022-12-19T14:28:17.439Z,28.80
2022-12-19T14:30:28.283Z,28.58
2022-12-19T14:33:45.283Z,28.63
2022-12-19T14:36:08.790Z,30.15
2022-12-19T14:39:24.341Z,30.52
2022-12-19T14:41:48.945Z,28.83
2022-12-19T14:52:34.730Z,28.00
2022-12-19T14:53:34.272Z,31.30
2022-12-19T14:54:15.829Z,31.00
2022-12-19T14:54:32.221Z,28.90
2022-12-19T14:59:01.765Z,29.67
2022-12-19T15:01:33.149Z,29.90
2022-12-19T15:04:51.191Z,31.02
2022-12-19T15:07:06.945Z,29.35
2022-12-19T15:10:58.188Z,30.48
2022-12-19T15:14:04.155Z,29.27
2022-12-19T15:16:04.908Z,31.70
2022-12-19T15:18:33.303Z,30.30
2022-12-19T15:21:04.137Z,28.85
2022-12-19T15:23:32.233Z,29.98
2022-12-19T15:26:05.612Z,29.98
2022-12-19T15:28:42.123Z,29.25
2022-12-19T15:31:33.148Z,29.80
2022-12-19T15:36:49.598Z,29.33
2022-12-19T15:39:17.693Z,30.45
2022-12-19T15:41:47.714Z,32.28
2022-12-19T15:44:20.612Z,32.10
2022-12-19T15:46:49.362Z,29.80
2022-12-19T15:49:18.787Z,30.27
2022-12-19T15:51:46.975Z,31.73
2022-12-19T15:57:01.444Z,30.05
2022-12-19T15:59:37.548Z,30.17
2022-12-19T16:02:16.658Z,31.85
2022-12-19T16:04:45.481Z,31.45
2022-12-19T16:07:16.750Z,30.60
2022-12-19T16:09:44.106Z,32.53
2022-12-19T16:12:19.304Z,31.75
2022-12-19T16:14:49.343Z,31.38
2022-12-19T16:17:21.396Z,31.40
2022-12-19T16:19:48.807Z,30.52
2022-12-19T16:22:19.755Z,31.50
2022-12-19T16:24:47.498Z,31.83
2022-12-19T16:27:32.532Z,32.00
2022-12-19T16:30:07.539Z,31.75
2022-12-19T16:32:35.157Z,33.85
2022-12-19T16:35:02.451Z,32.08
2022-12-19T16:37:32.427Z,31.85
2022-12-19T16:39:59.659Z,31.25
2022-12-19T16:42:28.374Z,32.90
2022-12-19T16:44:55.569Z,32.15
2022-12-19T16:47:23.233Z,34.03
2022-12-19T16:49:50.410Z,33.63
2022-12-19T16:52:17.887Z,34.78
2022-12-19T16:54:45.109Z,32.05
2022-12-19T16:57:21.255Z,31.05
2022-12-19T16:59:49.935Z,31.88
2022-12-19T17:02:36.870Z,32.47
2022-12-19T17:05:05.015Z,30.88
2022-12-19T17:07:32.461Z,34.58
2022-12-19T17:09:59.795Z,33.70
2022-12-19T17:12:27.903Z,34.72
2022-12-19T17:14:55.115Z,33.10
2022-12-19T17:17:22.402Z,34.25
2022-12-19T17:19:49.557Z,34.28
2022-12-19T17:22:18.839Z,33.20
2022-12-19T17:24:46.892Z,34.45
2022-12-19T17:27:14.364Z,35.17
2022-12-19T17:29:41.408Z,36.33
2022-12-19T17:32:11.329Z,36.30
2022-12-19T17:34:38.467Z,36.13
2022-12-19T17:37:05.904Z,35.45
2022-12-19T17:39:34.841Z,35.33
2022-12-19T17:42:13.903Z,35.28
2022-12-19T17:44:41.006Z,35.03
2022-12-19T17:47:11.507Z,34.67
2022-12-19T17:49:39.222Z,34.85
2022-12-19T17:52:13.696Z,37.58
2022-12-19T17:54:41.007Z,34.78
2022-12-19T17:57:14.334Z,35.45
2022-12-19T17:59:42.411Z,36.63
2022-12-19T18:02:20.392Z,37.30
2022-12-19T18:04:47.784Z,33.95
2022-12-19T18:07:17.069Z,37.17
2022-12-19T18:09:44.923Z,38.17
2022-12-19T18:12:12.179Z,37.03
2022-12-19T18:14:39.276Z,38.70
2022-12-19T18:17:06.658Z,40.10
2022-12-19T18:19:35.092Z,40.17
2022-12-19T18:22:02.381Z,39.22
2022-12-19T18:24:29.872Z,40.17
2022-12-19T18:26:57.233Z,39.78
2022-12-19T18:29:25.935Z,41.30
2022-12-19T18:31:54.486Z,41.22
2022-12-19T18:34:25.046Z,40.95
2022-12-19T18:36:53.364Z,40.55
2022-12-19T18:39:23.168Z,40.55
2022-12-19T18:41:51.747Z,38.47
2022-12-19T18:44:19.388Z,40.72
2022-12-19T18:46:49.999Z,43.15
2022-12-19T18:49:17.715Z,42.35
2022-12-19T18:51:44.976Z,41.38
2022-12-19T18:54:17.944Z,41.28
2022-12-19T18:56:45.532Z,41.88
2022-12-19T18:59:12.872Z,43.15
2022-12-19T19:01:43.783Z,43.78
2022-12-19T19:04:13.472Z,42.53
2022-12-19T19:06:46.694Z,42.42
2022-12-19T19:09:18.579Z,42.45
2022-12-19T19:12:06.181Z,41.67
2022-12-19T19:14:33.511Z,41.50
2022-12-19T19:17:00.838Z,41.75
2022-12-19T19:19:28.307Z,43.80
2022-12-19T19:21:55.575Z,42.45
2022-12-19T19:24:23.432Z,43.03
2022-12-19T19:26:50.575Z,45.50
2022-12-19T19:29:19.847Z,42.53
2022-12-19T19:31:49.457Z,42.08
2022-12-19T19:34:27.063Z,42.65
2022-12-19T19:36:56.304Z,43.25
2022-12-19T19:39:24.978Z,41.70
2022-12-19T19:41:52.460Z,42.55
2022-12-19T19:44:19.856Z,45.80
2022-12-19T19:46:47.069Z,42.90
2022-12-19T19:49:14.562Z,39.72
2022-12-19T19:51:41.689Z,40.92
2022-12-19T19:54:09.259Z,41.78
2022-12-19T19:56:36.483Z,44.17
2022-12-19T19:59:03.927Z,43.97
2022-12-19T20:01:31.167Z,40.28
2022-12-19T20:03:58.281Z,41.13
2022-12-19T20:06:25.729Z,41.25
2022-12-19T20:08:53.014Z,40.22
2022-12-19T20:11:20.874Z,39.50
2022-12-19T20:13:48.138Z,40.78
2022-12-19T20:16:18.833Z,41.30
2022-12-19T20:18:50.682Z,41.35
2022-12-19T20:21:20.579Z,41.75
2022-12-19T20:23:48.419Z,40.58
2022-12-19T20:26:16.613Z,40.75
2022-12-19T20:28:48.954Z,41.35
2022-12-19T20:31:22.543Z,41.05
2022-12-19T20:33:50.716Z,40.53
2022-12-19T20:36:18.293Z,42.30
2022-12-19T20:38:46.135Z,40.80
2022-12-19T20:41:14.189Z,42.50
2022-12-19T20:43:41.517Z,39.88
2022-12-19T20:46:14.068Z,40.78
2022-12-19T20:48:42.200Z,41.22
2022-12-19T20:51:10.225Z,41.85
2022-12-19T20:53:38.903Z,40.50
2022-12-19T20:56:07.536Z,40.50
2022-12-19T20:58:36.857Z,39.00
2022-12-19T21:01:07.337Z,39.55
2022-12-19T21:03:35.979Z,40.88
2022-12-19T21:06:03.766Z,40.85
2022-12-19T21:08:33.406Z,40.67
2022-12-19T21:11:02.331Z,40.55
2022-12-19T21:13:29.771Z,39.63
2022-12-19T21:15:58.889Z,42.90
2022-12-19T21:18:26.917Z,40.70
2022-12-19T21:20:54.702Z,38.75
2022-12-19T21:23:23.074Z,40.40
2022-12-19T21:25:50.863Z,41.85
2022-12-19T21:28:18.444Z,39.92
2022-12-19T21:30:45.812Z,41.03
2022-12-19T21:33:13.234Z,40.83
2022-12-19T21:35:40.551Z,41.30
2022-12-19T21:38:07.643Z,43.42
2022-12-19T21:40:36.825Z,42.50
2022-12-19T21:43:11.483Z,41.60
2022-12-19T21:45:39.842Z,41.30
2022-12-19T21:48:07.018Z,43.40
2022-12-19T21:50:34.228Z,41.45
2022-12-19T21:53:01.504Z,40.58
2022-12-19T21:55:28.646Z,41.95
2022-12-19T21:57:55.957Z,41.47
2022-12-19T22:00:23.216Z,40.47
2022-12-19T22:03:12.702Z,40.70
2022-12-19T22:05:37.607Z,39.15
2022-12-19T22:08:05.102Z,41.47
2022-12-19T22:10:32.213Z,41.90
2022-12-19T22:12:59.525Z,42.63
2022-12-19T22:15:26.535Z,41.13
2022-12-19T22:17:53.736Z,41.85
2022-12-19T22:20:20.747Z,42.17
2022-12-19T22:22:47.768Z,42.03
2022-12-19T22:25:15.588Z,41.50
2022-12-19T22:27:42.584Z,42.20
2022-12-19T22:30:11.261Z,42.10
2022-12-19T22:32:38.748Z,40.80
2022-12-19T22:35:06.455Z,41.80
2022-12-19T22:37:33.668Z,41.97
2022-12-19T22:40:04.226Z,40.75
2022-12-19T22:42:31.291Z,41.35
2022-12-19T22:44:58.511Z,39.33
2022-12-19T22:47:25.544Z,40.63
2022-12-19T22:49:52.939Z,41.50
2022-12-19T22:52:20.044Z,41.30
2022-12-19T22:54:47.057Z,38.90
2022-12-19T22:57:14.120Z,43.17
2022-12-19T22:59:42.225Z,39.72
2022-12-19T23:02:09.712Z,39.95
2022-12-19T23:04:36.936Z,40.58
2022-12-19T23:07:04.052Z,40.10
2022-12-19T23:09:31.154Z,39.22
2022-12-19T23:11:58.173Z,41.80
2022-12-19T23:14:25.239Z,39.58
2022-12-19T23:16:52.339Z,39.00
2022-12-19T23:19:19.469Z,39.15
2022-12-19T23:21:46.822Z,40.08
2022-12-19T23:24:14.028Z,40.45
2022-12-19T23:26:41.895Z,39.05
2022-12-19T23:29:11.838Z,39.20
2022-12-19T23:31:42.095Z,39.90
2022-12-19T23:34:10.630Z,38.42
2022-12-19T23:37:10.233Z,38.33
2022-12-19T23:39:25.396Z,37.25
2022-12-19T23:41:52.449Z,38.10
2022-12-19T23:44:19.701Z,39.50
2022-12-19T23:46:46.740Z,39.75
2022-12-19T23:49:13.809Z,39.22
2022-12-19T23:51:40.791Z,38.75
2022-12-19T23:54:08.944Z,39.45
2022-12-19T23:56:36.422Z,38.97
2022-12-19T23:59:03.730Z,36.50
